Time;durP1;ratioP1;P1;durP2;ratioP2;P2;SDS_P1;SDS_P2;PMS_P1;PMS_P2;Temp;Humidity;BMP_temperature;BMP_pressure;BME280_temperature;BME280_humidity;BME280_pressure;Samples;Min_cycle;Max_cycle;Signal;HPM_P1;HPM_P2
2022/11/30 08:05:38;;;;;;;2.85;2.20;;;;;;;18.89;50.51;100916.00;10207929;27;43081;-62
2022/11/30 08:10:30;;;;;;;3.67;2.17;;;;;;;19.08;49.90;100910.56;10218095;27;65395;-63
2022/11/30 08:15:22;;;;;;;2.67;2.22;;;;;;;19.17;49.45;100914.34;10207080;27;65520;-63
2022/11/30 08:20:15;;;;;;;2.25;2.05;;;;;;;19.23;49.53;100911.22;10200121;27;66362;-63
2022/11/30 08:25:09;;;;;;;2.10;1.90;;;;;;;19.27;49.37;100901.28;10203277;27;66016;-62
2022/11/30 08:30:01;;;;;;;2.53;2.15;;;;;;;19.30;49.35;100910.88;10203177;27;66413;-62
2022/11/30 08:34:53;;;;;;;2.75;2.08;;;;;;;19.31;49.25;100918.84;10209894;27;65440;-62
2022/11/30 08:39:45;;;;;;;2.63;2.30;;;;;;;19.33;49.05;100908.38;10206102;27;66357;-63
2022/11/30 08:44:38;;;;;;;2.35;2.15;;;;;;;19.38;49.06;100910.25;10209641;27;66351;-62
2022/11/30 08:49:30;;;;;;;3.15;2.20;;;;;;;19.37;48.91;100917.66;10210984;27;66250;-63
2022/11/30 08:54:22;;;;;;;2.55;2.17;;;;;;;19.48;49.41;100921.16;10201880;27;66405;-63
2022/11/30 09:00:28;;;;;;;4.13;2.08;;;;;;;19.49;49.05;100936.53;10146769;28;45513;-66
2022/11/30 09:05:20;;;;;;;10.43;7.07;;;;;;;18.77;46.65;100935.59;10135903;28;65511;-64
2022/11/30 09:10:12;;;;;;;19.63;12.27;;;;;;;16.23;51.66;100943.03;10135609;28;66414;-63
2022/11/30 09:15:05;;;;;;;21.52;13.63;;;;;;;15.89;52.64;100945.44;10137214;28;66380;-63
2022/11/30 09:19:58;;;;;;;22.05;13.02;;;;;;;15.53;54.47;100941.75;10140933;28;65629;-61
2022/11/30 09:24:50;;;;;;;18.70;12.00;;;;;;;16.39;51.96;100941.97;10140257;28;66135;-61
2022/11/30 09:29:42;;;;;;;14.68;10.00;;;;;;;17.72;49.03;100951.66;10136650;28;65478;-63
2022/11/30 09:34:34;;;;;;;13.52;9.10;;;;;;;18.20;47.95;100947.28;10144904;28;66316;-65
2022/11/30 09:39:27;;;;;;;13.35;8.45;;;;;;;18.39;47.82;100944.66;10140625;28;66194;-65
2022/11/30 09:44:23;;;;;;;11.27;7.60;;;;;;;18.58;47.53;100935.50;10142267;28;65253;-65
2022/11/30 09:49:17;;;;;;;11.68;7.20;;;;;;;18.77;47.55;100943.84;10141155;28;65567;-71
2022/11/30 09:54:12;;;;;;;9.68;6.68;;;;;;;18.85;47.33;100945.16;10134918;28;66328;-71
2022/11/30 09:59:07;;;;;;;11.95;6.00;;;;;;;18.89;47.28;100941.56;10129736;28;65567;-72
2022/11/30 10:04:00;;;;;;;10.50;6.63;;;;;;;19.00;47.13;100943.09;10132354;28;66294;-72
2022/11/30 10:09:26;;;;;;;10.98;5.40;;;;;;;19.04;47.15;100948.00;10127511;28;66990;-73
2022/11/30 10:14:29;;;;;;;8.43;5.60;;;;;;;19.10;47.27;100944.09;10106457;28;66382;-72
2022/11/30 10:19:28;;;;;;;8.55;5.88;;;;;;;19.11;47.12;100951.25;10109292;28;66863;-74
2022/11/30 10:24:29;;;;;;;7.80;5.38;;;;;;;19.12;47.25;100939.13;10106075;28;66033;-72
2022/11/30 10:29:26;;;;;;;7.30;5.18;;;;;;;19.18;47.08;100935.22;10109743;28;66589;-73
2022/11/30 10:34:20;;;;;;;6.53;5.22;;;;;;;19.19;47.09;100936.88;10105390;28;66341;-73
2022/11/30 10:39:16;;;;;;;6.68;4.80;;;;;;;19.21;47.20;100938.19;10105381;28;66446;-72
2022/11/30 10:44:11;;;;;;;6.60;5.50;;;;;;;19.24;47.05;100934.06;10105926;28;66429;-73
2022/11/30 10:49:06;;;;;;;6.30;4.07;;;;;;;19.21;47.57;100927.19;10110417;28;66889;-72
2022/11/30 10:53:59;;;;;;;7.18;5.03;;;;;;;19.22;48.01;100920.59;10113192;28;66858;-72
2022/11/30 10:58:53;;;;;;;7.05;5.03;;;;;;;19.22;48.10;100930.75;10110516;28;66359;-73
2022/11/30 11:03:45;;;;;;;8.13;4.95;;;;;;;19.20;47.97;100921.97;10103982;28;66295;-73
2022/11/30 11:08:39;;;;;;;6.18;4.13;;;;;;;19.22;48.25;100930.75;10103670;28;66142;-69
2022/11/30 11:13:38;;;;;;;5.20;4.20;;;;;;;19.00;48.25;100928.53;10104435;28;65964;-71
2022/11/30 11:18:30;;;;;;;5.40;4.05;;;;;;;19.27;47.94;100931.53;10104256;28;65513;-71
2022/11/30 11:23:32;;;;;;;7.15;4.35;;;;;;;19.20;48.28;100930.22;10100603;28;65467;-71
2022/11/30 11:28:25;;;;;;;5.72;4.35;;;;;;;19.30;48.02;100928.19;10109513;28;65684;-70
2022/11/30 11:33:20;;;;;;;5.00;3.80;;;;;;;19.30;47.84;100921.88;10104047;28;66163;-72
2022/11/30 11:38:22;;;;;;;5.10;4.20;;;;;;;19.29;47.77;100929.31;10111602;28;65599;-71
2022/11/30 11:43:16;;;;;;;4.78;3.95;;;;;;;19.36;47.65;100926.19;10109550;28;65503;-71
2022/11/30 11:54:46;;;;;;;5.53;4.10;;;;;;;19.32;47.98;100919.66;10184093;27;45548;-58
2022/11/30 11:59:40;;;;;;;7.80;4.63;;;;;;;19.33;48.32;100924.06;10139784;27;65217;-58
2022/11/30 12:04:45;;;;;;;11.25;5.57;;;;;;;19.34;48.27;100911.94;10146220;27;66733;-59
2022/11/30 12:09:40;;;;;;;9.73;5.50;;;;;;;19.36;48.27;100918.78;10138101;27;66409;-58
2022/11/30 12:14:34;;;;;;;6.80;5.32;;;;;;;19.39;48.39;100922.88;10138554;27;65262;-59
2022/11/30 12:19:29;;;;;;;7.10;5.10;;;;;;;19.42;48.41;100927.78;10138755;27;66323;-59
2022/11/30 12:24:34;;;;;;;6.90;5.13;;;;;;;19.53;48.62;100921.09;10143784;27;66130;-58
2022/11/30 12:29:29;;;;;;;9.13;5.38;;;;;;;19.53;49.00;100923.84;10145613;27;66414;-56
2022/11/30 12:34:25;;;;;;;7.60;4.38;;;;;;;19.52;48.86;100918.63;10141017;27;66307;-63
2022/11/30 12:39:21;;;;;;;9.27;5.47;;;;;;;19.44;49.21;100922.00;10141558;27;66525;-62
2022/11/30 12:44:27;;;;;;;8.82;4.97;;;;;;;19.43;48.90;100918.41;10145917;27;66368;-63
2022/11/30 12:49:32;;;;;;;6.80;4.65;;;;;;;19.44;48.73;100917.31;10145679;27;66417;-63
2022/11/30 12:54:26;;;;;;;9.32;5.95;;;;;;;19.55;48.46;100923.53;10140693;27;65868;-61
2022/11/30 12:59:23;;;;;;;10.75;8.25;;;;;;;19.24;47.23;100928.56;10146705;28;66429;-61
2022/11/30 13:04:18;;;;;;;14.30;11.98;;;;;;;18.23;48.26;100932.97;10120543;28;66393;-61
2022/11/30 13:12:50;;;;;;;12.90;10.13;;;;;;;18.21;49.53;100922.31;10182048;27;42917;-79
2022/11/30 13:17:43;;;;;;;9.50;7.60;;;;;;;18.32;49.88;100928.53;10176688;27;65764;-78
2022/11/30 13:22:41;;;;;;;9.23;7.25;;;;;;;18.35;49.99;100922.47;10169523;27;66679;-77
2022/11/30 13:27:36;;;;;;;8.15;5.97;;;;;;;18.37;49.97;100923.03;10168996;27;66356;-76
2022/11/30 13:32:33;;;;;;;9.75;6.28;;;;;;;18.46;50.40;100928.69;10166674;27;66315;-83
2022/11/30 13:37:27;;;;;;;9.98;5.88;;;;;;;18.64;50.06;100924.47;10155842;27;66395;-86
2022/11/30 13:42:38;;;;;;;8.70;5.35;;;;;;;18.71;49.99;100919.47;10168224;27;65200;-81
2022/11/30 13:47:33;;;;;;;6.95;5.05;;;;;;;18.67;49.99;100916.50;10165816;27;65693;-84
2022/11/30 13:53:03;;;;;;;10.40;8.60;;;;;;;18.64;48.17;100921.72;10161566;27;66555;-86
2022/11/30 13:58:06;;;;;;;10.73;9.05;;;;;;;18.59;47.93;100920.69;10150418;27;65596;-76
2022/11/30 14:03:17;;;;;;;11.77;8.25;;;;;;;18.63;47.80;100926.41;10150052;27;65497;-81
2022/11/30 14:08:11;;;;;;;8.32;6.88;;;;;;;18.76;48.07;100920.22;10156361;27;66410;-81
2022/11/30 14:13:03;;;;;;;8.60;5.90;;;;;;;18.83;48.13;100923.47;10162632;27;65922;-79
2022/11/30 14:17:55;;;;;;;10.27;6.07;;;;;;;18.92;48.08;100934.66;10152609;27;66476;-92
2022/11/30 14:22:49;;;;;;;7.10;5.05;;;;;;;19.02;48.00;100934.56;10145561;27;66842;-82
2022/11/30 14:27:41;;;;;;;5.32;4.63;;;;;;;19.08;48.11;100941.63;10140442;28;65525;-82
2022/11/30 14:32:35;;;;;;;6.22;4.63;;;;;;;19.21;47.93;100940.13;10136022;27;65516;-77
2022/11/30 14:37:30;;;;;;;8.68;4.47;;;;;;;19.27;47.49;100938.94;10133480;27;66626;-80
2022/11/30 14:42:24;;;;;;;4.60;4.15;;;;;;;19.33;47.48;100948.81;10137667;28;65745;-84
2022/11/30 14:47:21;;;;;;;4.38;3.85;;;;;;;19.43;47.47;100943.16;10143571;27;66122;-83
2022/11/30 14:52:13;;;;;;;6.63;3.95;;;;;;;19.46;47.51;100941.78;10146322;28;66114;-80
2022/11/30 14:57:08;;;;;;;4.00;3.60;;;;;;;19.52;47.22;100938.69;10133772;28;66800;-81
2022/11/30 15:02:03;;;;;;;8.30;3.65;;;;;;;19.54;47.40;100936.47;10133406;27;65883;-80
2022/11/30 15:06:55;;;;;;;4.38;3.70;;;;;;;19.64;47.33;100938.25;10137953;28;66147;-82
2022/11/30 15:11:48;;;;;;;4.40;3.97;;;;;;;19.71;47.10;100941.50;10133417;28;65562;-80
2022/11/30 15:16:46;;;;;;;5.45;3.67;;;;;;;19.51;47.56;100948.06;10135543;28;65736;-79
2022/11/30 15:21:45;;;;;;;6.50;3.38;;;;;;;19.37;48.01;100945.16;10118768;28;66319;-84
2022/11/30 15:26:41;;;;;;;5.75;3.83;;;;;;;19.46;48.16;100941.78;10133791;28;66397;-89
2022/11/30 15:31:34;;;;;;;6.15;3.50;;;;;;;19.32;48.33;100941.66;10139705;28;65615;-82
2022/11/30 15:36:26;;;;;;;4.30;3.30;;;;;;;19.25;48.55;100947.50;10130659;28;66133;-81
2022/11/30 15:41:22;;;;;;;5.13;3.28;;;;;;;19.21;48.68;100945.63;10128453;28;67879;-82
2022/11/30 15:46:28;;;;;;;5.00;3.30;;;;;;;19.22;48.63;100959.06;10140955;28;66421;-81
2022/11/30 15:51:22;;;;;;;3.78;3.47;;;;;;;19.20;49.09;100957.72;10122517;28;65101;-85
2022/11/30 15:56:23;;;;;;;4.70;3.10;;;;;;;19.17;49.33;100966.56;10136534;28;64968;-86
2022/11/30 16:01:17;;;;;;;3.83;3.47;;;;;;;19.16;49.69;100974.00;10119378;28;66416;-84
2022/11/30 16:06:13;;;;;;;5.70;3.40;;;;;;;19.17;49.80;100967.38;10143269;28;65588;-86
2022/11/30 16:11:05;;;;;;;8.77;3.13;;;;;;;19.16;49.89;100971.25;10137710;27;66298;-83
2022/11/30 16:15:59;;;;;;;4.82;3.35;;;;;;;19.17;49.92;100975.63;10129195;27;65511;-78
2022/11/30 16:20:53;;;;;;;3.47;3.17;;;;;;;19.19;49.97;100980.84;10119080;28;66199;-83
2022/11/30 16:25:46;;;;;;;3.70;3.28;;;;;;;19.15;50.15;100983.34;10129884;28;66448;-81
2022/11/30 16:30:38;;;;;;;4.70;3.13;;;;;;;19.35;49.59;100979.56;10129974;28;64510;-76
2022/11/30 16:35:35;;;;;;;3.70;3.03;;;;;;;19.38;49.73;100985.31;10130921;28;66480;-76
2022/11/30 16:40:27;;;;;;;4.10;2.67;;;;;;;19.37;49.74;100989.16;10127598;28;66274;-79
2022/11/30 16:45:20;;;;;;;4.25;3.05;;;;;;;19.40;49.73;100993.25;10136991;28;65483;-79
2022/11/30 16:50:12;;;;;;;3.70;3.13;;;;;;;19.41;49.79;100989.41;10124670;27;66437;-76
2022/11/30 16:55:12;;;;;;;3.55;2.80;;;;;;;19.38;49.99;101003.72;10134433;28;66302;-80
2022/11/30 17:00:05;;;;;;;3.13;2.83;;;;;;;19.35;49.90;101004.31;10131336;27;66915;-80
2022/11/30 17:04:57;;;;;;;4.80;2.95;;;;;;;19.35;50.20;101007.06;10128240;28;65362;-78
2022/11/30 17:09:50;;;;;;;2.72;2.53;;;;;;;19.33;50.14;101012.03;10132551;28;65686;-77
2022/11/30 17:14:43;;;;;;;3.42;3.13;;;;;;;19.30;50.16;101012.59;10132446;27;66433;-80
2022/11/30 17:19:36;;;;;;;2.60;2.25;;;;;;;19.30;50.21;101012.59;10132244;28;66406;-80
2022/11/30 17:24:28;;;;;;;3.13;2.50;;;;;;;19.24;50.36;101011.84;10122518;28;65526;-84
2022/11/30 17:29:20;;;;;;;5.97;2.63;;;;;;;19.24;50.52;101016.53;10133596;28;65496;-75
2022/11/30 17:34:13;;;;;;;4.25;2.85;;;;;;;19.25;50.43;101020.91;10126935;27;66386;-74
2022/11/30 17:39:06;;;;;;;3.95;2.42;;;;;;;19.21;50.75;101019.84;10125988;27;65415;-80
2022/11/30 17:43:58;;;;;;;3.65;2.60;;;;;;;19.13;50.53;101015.78;10120812;28;66340;-77
2022/11/30 17:48:50;;;;;;;3.83;2.92;;;;;;;19.11;50.65;101018.03;10119892;27;65537;-76
2022/11/30 17:53:47;;;;;;;4.03;2.50;;;;;;;19.05;50.59;101030.16;10112646;28;65494;-76
2022/11/30 17:58:40;;;;;;;3.42;2.83;;;;;;;18.99;50.42;101026.63;10120102;28;66162;-76
2022/11/30 18:03:32;;;;;;;3.50;2.38;;;;;;;18.98;50.66;101038.72;10125572;28;65576;-76
2022/11/30 18:08:24;;;;;;;3.35;3.00;;;;;;;18.95;50.58;101042.06;10120454;28;66445;-77
2022/11/30 18:13:17;;;;;;;2.70;2.40;;;;;;;18.95;50.44;101044.00;10125241;28;66255;-78
2022/11/30 18:18:09;;;;;;;3.40;2.83;;;;;;;18.90;50.78;101047.59;10133538;28;65462;-81
2022/11/30 18:23:01;;;;;;;2.88;2.33;;;;;;;18.88;50.66;101052.56;10134895;28;65484;-75
2022/11/30 18:27:53;;;;;;;2.95;2.35;;;;;;;18.88;50.89;101049.00;10128440;28;65489;-79
2022/11/30 18:32:46;;;;;;;2.97;2.58;;;;;;;18.88;50.99;101051.75;10132758;28;65552;-75
2022/11/30 18:37:39;;;;;;;4.20;2.72;;;;;;;18.89;50.97;101056.13;10123423;28;65585;-76
2022/11/30 18:42:31;;;;;;;2.60;2.03;;;;;;;18.88;51.12;101060.00;10126119;28;66789;-77
2022/11/30 18:47:23;;;;;;;3.90;2.40;;;;;;;18.86;51.29;101062.19;10131903;28;66114;-76
2022/11/30 18:52:16;;;;;;;2.50;2.30;;;;;;;18.83;51.31;101055.34;10126235;28;65600;-77
2022/11/30 18:57:08;;;;;;;2.50;2.25;;;;;;;18.83;51.32;101057.25;10131834;28;65460;-78
2022/11/30 19:02:00;;;;;;;2.20;2.00;;;;;;;18.84;51.39;101064.41;10131990;27;66439;-77
2022/11/30 19:06:52;;;;;;;3.05;2.75;;;;;;;18.83;51.47;101069.06;10130800;28;66554;-78
2022/11/30 19:11:46;;;;;;;3.67;2.30;;;;;;;18.83;51.37;101058.06;10131061;28;65601;-76
2022/11/30 19:16:38;;;;;;;4.43;2.45;;;;;;;18.81;51.24;101065.81;10127827;28;66558;-73
2022/11/30 19:21:30;;;;;;;8.27;7.38;;;;;;;17.59;49.11;101062.72;10143857;27;67875;-81
2022/11/30 19:26:22;;;;;;;6.28;4.93;;;;;;;18.14;49.90;101071.94;10129244;28;65266;-73
2022/11/30 19:31:17;;;;;;;5.78;4.35;;;;;;;18.28;49.81;101064.72;10131330;28;65520;-72
2022/11/30 19:36:12;;;;;;;5.20;3.75;;;;;;;18.35;49.96;101072.66;10133449;28;65854;-72
2022/11/30 19:41:05;;;;;;;4.40;2.92;;;;;;;18.34;50.15;101074.56;10123578;28;65623;-77
2022/11/30 19:45:58;;;;;;;3.42;2.85;;;;;;;18.38;50.36;101072.06;10135393;28;65713;-72
2022/11/30 19:50:52;;;;;;;4.95;2.88;;;;;;;18.40;50.47;101076.19;10136766;28;66852;-73
2022/11/30 19:55:44;;;;;;;3.25;2.92;;;;;;;18.40;50.86;101080.84;10129401;27;65680;-72
2022/11/30 20:00:36;;;;;;;2.40;2.17;;;;;;;18.39;51.17;101084.69;10136899;27;66658;-72
2022/11/30 20:21:13;;;;;;;7.18;6.25;;;;;;;17.57;47.97;101099.75;10877428;22;44248;-82
2022/11/30 20:26:13;;;;;;;6.55;5.90;;;;;;;17.35;48.00;101109.09;9951857;28;65567;-84
